createdAt,value
2019-05-18T00:02:01.905Z,0.80
2019-05-18T00:04:42.515Z,0.70
2019-05-18T00:07:23.533Z,0.87
2019-05-18T00:10:04.147Z,0.67
2019-05-18T00:12:45.120Z,0.40
2019-05-18T00:15:26.203Z,0.70
2019-05-18T00:18:07.144Z,1.00
2019-05-18T00:20:47.648Z,0.83
2019-05-18T00:23:28.655Z,0.90
2019-05-18T00:26:09.733Z,0.50
2019-05-18T00:28:50.440Z,0.73
2019-05-18T00:31:31.104Z,0.83
2019-05-18T00:34:12.012Z,0.50
2019-05-18T00:36:52.639Z,0.30
2019-05-18T00:39:33.391Z,0.57
2019-05-18T00:42:14.177Z,0.43
2019-05-18T00:44:54.957Z,1.00
2019-05-18T00:47:41.530Z,0.40
2019-05-18T00:50:18.185Z,0.70
2019-05-18T00:52:59.021Z,1.00
2019-05-18T00:55:40.141Z,0.67
2019-05-18T00:58:20.847Z,0.73
2019-05-18T01:01:01.686Z,0.70
2019-05-18T01:03:42.505Z,0.70
2019-05-18T01:06:23.770Z,0.70
2019-05-18T01:09:05.350Z,0.50
2019-05-18T01:11:46.029Z,0.80
2019-05-18T01:14:26.433Z,0.57
2019-05-18T01:17:07.369Z,0.40
2019-05-18T01:19:48.030Z,0.57
2019-05-18T01:22:28.689Z,1.20
2019-05-18T01:25:09.294Z,0.93
2019-05-18T01:27:49.872Z,0.83
2019-05-18T01:30:30.785Z,0.90
2019-05-18T01:33:11.499Z,0.80
2019-05-18T01:35:52.064Z,0.80
2019-05-18T01:38:32.801Z,0.77
2019-05-18T01:41:13.418Z,0.90
2019-05-18T01:43:54.207Z,1.07
2019-05-18T01:46:35.078Z,0.80
2019-05-18T01:49:15.677Z,0.53
2019-05-18T01:51:56.781Z,0.40
2019-05-18T01:54:37.517Z,0.70
2019-05-18T01:57:18.217Z,0.70
2019-05-18T01:59:59.256Z,0.63
2019-05-18T02:02:39.949Z,0.50
2019-05-18T02:05:20.591Z,1.10
2019-05-18T02:08:01.321Z,0.70
2019-05-18T02:10:42.276Z,0.70
2019-05-18T02:13:23.020Z,0.70
2019-05-18T02:16:03.802Z,0.83
2019-05-18T02:18:44.598Z,0.87
2019-05-18T02:21:25.162Z,0.63
2019-05-18T02:24:05.791Z,0.87
2019-05-18T02:26:46.905Z,0.57
2019-05-18T02:29:27.585Z,0.17
2019-05-18T02:32:08.252Z,0.40
2019-05-18T02:34:49.119Z,0.57
2019-05-18T02:37:30.213Z,0.77
2019-05-18T02:40:10.942Z,0.80
2019-05-18T02:42:51.613Z,0.70
2019-05-18T02:45:32.277Z,0.90
2019-05-18T02:48:13.019Z,0.63
2019-05-18T02:50:53.775Z,0.70
2019-05-18T02:53:35.002Z,0.60
2019-05-18T02:56:15.720Z,0.93
2019-05-18T02:58:56.805Z,0.90
2019-05-18T03:01:37.844Z,0.67
2019-05-18T03:04:18.542Z,0.77
2019-05-18T03:06:59.157Z,0.80
2019-05-18T03:09:39.638Z,0.70
2019-05-18T03:12:20.536Z,1.10
2019-05-18T03:15:01.152Z,0.50
2019-05-18T03:17:42.401Z,0.63
2019-05-18T03:20:23.140Z,0.60
2019-05-18T03:23:03.920Z,0.87
2019-05-18T03:25:45.015Z,1.40
2019-05-18T03:28:25.756Z,0.80
2019-05-18T03:31:06.753Z,1.07
2019-05-18T03:33:47.730Z,0.60
2019-05-18T03:36:28.451Z,0.53
2019-05-18T03:39:09.418Z,0.73
2019-05-18T03:41:50.032Z,0.90
2019-05-18T03:44:30.882Z,0.70
2019-05-18T03:47:11.583Z,1.17
2019-05-18T03:49:52.217Z,0.80
2019-05-18T03:52:33.471Z,0.83
2019-05-18T03:57:54.377Z,0.63
2019-05-18T04:00:35.074Z,0.80
2019-05-18T04:03:15.830Z,0.70
2019-05-18T04:05:56.426Z,0.87
2019-05-18T04:08:37.005Z,1.43
2019-05-18T04:11:17.770Z,0.97
2019-05-18T04:13:58.680Z,0.77
2019-05-18T04:16:39.804Z,0.83
2019-05-18T04:19:20.637Z,0.93
2019-05-18T04:22:01.410Z,0.60
2019-05-18T04:24:42.016Z,1.33
2019-05-18T04:27:22.482Z,0.57
2019-05-18T04:30:03.368Z,0.60
2019-05-18T04:32:44.273Z,0.80
2019-05-18T04:35:24.758Z,0.47
2019-05-18T04:38:05.512Z,0.80
2019-05-18T04:40:46.668Z,0.97
2019-05-18T04:43:27.417Z,0.83
2019-05-18T04:46:08.369Z,0.70
2019-05-18T04:48:49.219Z,0.87
2019-05-18T04:51:30.158Z,0.83
2019-05-18T04:54:10.866Z,1.03
2019-05-18T04:56:51.399Z,0.87
2019-05-18T04:59:32.092Z,0.97
2019-05-18T05:02:13.175Z,1.03
2019-05-18T05:04:56.625Z,1.03
2019-05-18T05:07:36.788Z,0.70
2019-05-18T05:10:17.564Z,1.03
2019-05-18T05:12:58.260Z,0.77
2019-05-18T05:15:38.754Z,0.80
2019-05-18T05:18:19.464Z,1.00
2019-05-18T05:21:00.390Z,0.73
2019-05-18T05:23:41.109Z,0.57
2019-05-18T05:26:22.064Z,0.90
2019-05-18T05:29:02.715Z,1.30
2019-05-18T05:31:43.169Z,1.00
2019-05-18T05:34:24.219Z,0.50
2019-05-18T05:37:05.244Z,0.73
2019-05-18T05:39:46.153Z,1.20
2019-05-18T05:42:26.964Z,0.73
2019-05-18T05:45:07.721Z,0.57
2019-05-18T05:47:48.442Z,1.27
2019-05-18T05:50:36.076Z,0.30
2019-05-18T05:53:12.169Z,0.63
2019-05-18T05:55:52.846Z,1.17
2019-05-18T05:58:33.752Z,0.57
2019-05-18T06:01:14.464Z,0.77
2019-05-18T06:03:55.200Z,0.70
2019-05-18T06:06:35.648Z,1.00
2019-05-18T06:09:16.364Z,1.23
2019-05-18T06:11:57.498Z,1.27
2019-05-18T06:14:38.848Z,0.87
2019-05-18T06:17:19.387Z,1.10
2019-05-18T06:20:00.310Z,1.10
2019-05-18T06:22:42.387Z,1.00
2019-05-18T06:25:23.141Z,1.17
2019-05-18T06:28:03.966Z,0.63
2019-05-18T06:30:44.557Z,1.13
2019-05-18T06:33:25.323Z,0.70
2019-05-18T06:36:06.038Z,1.17
2019-05-18T06:38:46.687Z,0.90
2019-05-18T06:41:27.264Z,0.87
2019-05-18T06:44:07.898Z,1.23
2019-05-18T06:46:48.977Z,1.03
2019-05-18T06:49:29.466Z,1.37
2019-05-18T06:52:10.029Z,1.00
2019-05-18T06:54:50.822Z,1.20
2019-05-18T06:57:31.612Z,0.60
2019-05-18T07:00:12.607Z,0.70
2019-05-18T07:02:53.373Z,1.20
2019-05-18T07:05:33.936Z,1.07
2019-05-18T07:08:14.632Z,1.10
2019-05-18T07:10:55.380Z,1.13
2019-05-18T07:13:36.248Z,1.67
2019-05-18T07:16:17.340Z,1.00
2019-05-18T07:18:58.121Z,1.00
2019-05-18T07:21:38.803Z,1.83
2019-05-18T07:24:19.573Z,1.33
2019-05-18T07:27:00.525Z,1.27
2019-05-18T07:29:41.278Z,1.50
2019-05-18T07:32:21.998Z,1.30
2019-05-18T07:35:02.938Z,1.17
2019-05-18T07:37:44.236Z,1.37
2019-05-18T07:40:25.132Z,1.00
2019-05-18T07:43:06.047Z,0.70
2019-05-18T07:45:46.799Z,1.17
2019-05-18T07:48:27.509Z,0.90
2019-05-18T07:51:08.168Z,1.00
2019-05-18T07:53:48.779Z,0.87
2019-05-18T07:56:29.405Z,1.30
2019-05-18T07:59:09.973Z,1.20
2019-05-18T08:01:50.496Z,1.00
2019-05-18T08:04:31.020Z,1.10
2019-05-18T08:07:11.701Z,1.30
2019-05-18T08:09:52.572Z,1.30
2019-05-18T08:12:33.458Z,1.10
2019-05-18T08:15:14.155Z,1.17
2019-05-18T08:25:53.418Z,1.13
2019-05-18T08:30:04.935Z,1.20
2019-05-18T08:32:52.311Z,1.13
2019-05-18T08:36:02.103Z,1.10
2019-05-18T08:41:31.715Z,1.40
2019-05-18T08:44:16.681Z,0.87
2019-05-18T08:49:45.537Z,1.30
2019-05-18T08:52:26.688Z,1.53
2019-05-18T08:55:07.299Z,1.57
2019-05-18T08:57:47.818Z,1.63
2019-05-18T09:00:28.545Z,1.40
2019-05-18T09:05:55.815Z,0.93
2019-05-18T09:08:38.030Z,1.00
2019-05-18T09:11:22.409Z,1.00
2019-05-18T09:16:51.071Z,1.27
2019-05-18T09:19:31.755Z,1.00
2019-05-18T09:22:22.799Z,0.83
2019-05-18T09:27:41.385Z,1.33
2019-05-18T09:30:22.706Z,1.53
2019-05-18T09:33:03.820Z,1.50
2019-05-18T09:35:44.337Z,1.30
2019-05-18T09:38:25.550Z,1.00
2019-05-18T09:41:06.061Z,1.97
2019-05-18T09:43:47.137Z,0.90
2019-05-18T09:46:27.661Z,1.63
2019-05-18T09:49:08.835Z,1.37
2019-05-18T09:51:49.201Z,1.70
2019-05-18T09:54:30.184Z,1.33
2019-05-18T09:57:10.760Z,1.00
2019-05-18T09:59:51.572Z,1.20
2019-05-18T10:02:32.360Z,1.37
2019-05-18T10:05:13.049Z,1.10
2019-05-18T10:07:53.563Z,1.50
2019-05-18T10:10:34.321Z,1.50
2019-05-18T10:13:15.476Z,0.80
2019-05-18T10:15:56.529Z,1.47
2019-05-18T10:18:37.943Z,1.57
2019-05-18T10:21:18.821Z,1.17
2019-05-18T10:23:59.556Z,1.07
2019-05-18T10:26:40.017Z,0.70
2019-05-18T10:32:12.489Z,1.50
2019-05-18T10:34:54.261Z,1.37
2019-05-18T10:37:38.589Z,1.20
2019-05-18T10:40:20.148Z,1.83
2019-05-18T10:43:01.299Z,1.47
2019-05-18T10:45:44.854Z,1.23
2019-05-18T10:48:24.468Z,0.93
2019-05-18T10:51:05.754Z,0.97
2019-05-18T10:53:46.272Z,1.37
2019-05-18T10:59:11.078Z,1.83
2019-05-18T11:01:51.903Z,1.33
2019-05-18T11:04:32.657Z,1.10
2019-05-18T11:07:13.318Z,1.20
2019-05-18T11:09:53.970Z,1.43
2019-05-18T11:12:34.718Z,1.77
2019-05-18T11:15:15.785Z,0.90
2019-05-18T11:20:45.505Z,1.57
2019-05-18T11:26:09.611Z,1.10
2019-05-18T11:31:42.870Z,1.00
2019-05-18T11:34:23.800Z,1.07
2019-05-18T11:37:05.023Z,0.80
2019-05-18T11:39:45.621Z,1.27
2019-05-18T11:42:26.495Z,1.73
2019-05-18T11:45:07.512Z,1.27
2019-05-18T11:47:48.200Z,1.27
2019-05-18T11:50:28.936Z,1.00
2019-05-18T11:53:09.762Z,1.00
2019-05-18T11:55:50.384Z,1.40
2019-05-18T11:58:30.905Z,1.17
2019-05-18T12:01:11.288Z,1.80
2019-05-18T12:03:51.944Z,1.50
2019-05-18T12:06:32.538Z,1.10
2019-05-18T12:09:13.374Z,0.90
2019-05-18T12:11:54.057Z,1.23
2019-05-18T12:14:34.691Z,1.23
2019-05-18T12:17:15.788Z,1.20
2019-05-18T12:19:56.218Z,1.37
2019-05-18T12:22:37.284Z,1.03
2019-05-18T12:25:18.242Z,0.93
2019-05-18T12:27:58.830Z,1.03
2019-05-18T12:30:39.398Z,1.53
2019-05-18T12:33:20.047Z,1.33
2019-05-18T12:36:00.711Z,1.90
2019-05-18T12:41:32.814Z,1.40
2019-05-18T12:44:14.189Z,1.70
2019-05-18T12:46:55.086Z,1.10
2019-05-18T12:49:35.709Z,1.27
2019-05-18T12:52:22.374Z,1.83
2019-05-18T12:55:03.707Z,3.80
2019-05-18T12:57:44.688Z,1.93
2019-05-18T13:00:25.383Z,1.57
2019-05-18T13:03:06.282Z,1.40
2019-05-18T13:05:47.014Z,1.13
2019-05-18T13:08:27.818Z,1.60
2019-05-18T13:11:08.237Z,2.00
2019-05-18T13:13:49.362Z,1.50
2019-05-18T13:16:30.193Z,1.20
2019-05-18T13:19:10.769Z,1.53
2019-05-18T13:21:51.442Z,1.63
2019-05-18T13:24:44.370Z,1.73
2019-05-18T13:27:14.678Z,1.40
2019-05-18T13:29:55.536Z,1.47
2019-05-18T13:32:36.236Z,1.50
2019-05-18T13:35:17.130Z,1.77
2019-05-18T13:37:57.884Z,1.80
2019-05-18T13:40:38.599Z,1.67
2019-05-18T13:43:19.625Z,1.93
2019-05-18T13:46:00.232Z,1.33
2019-05-18T13:48:41.025Z,1.70
2019-05-18T13:51:21.736Z,1.47
2019-05-18T13:54:02.463Z,2.20
2019-05-18T13:56:43.260Z,1.47
2019-05-18T13:59:23.892Z,2.10
2019-05-18T14:02:04.691Z,2.50
2019-05-18T14:04:45.343Z,2.30
2019-05-18T14:07:25.912Z,1.87
2019-05-18T14:10:06.605Z,2.00
2019-05-18T14:12:47.340Z,2.07
2019-05-18T14:15:28.764Z,1.70
2019-05-18T14:18:09.614Z,1.50
2019-05-18T14:20:50.401Z,1.70
2019-05-18T14:23:31.169Z,1.70
2019-05-18T14:26:11.864Z,2.57
2019-05-18T14:28:52.665Z,1.50
2019-05-18T14:31:33.731Z,1.53
2019-05-18T14:34:14.266Z,1.70
2019-05-18T14:36:54.939Z,1.50
2019-05-18T14:39:35.586Z,2.07
2019-05-18T14:42:16.172Z,1.67
2019-05-18T14:44:56.947Z,1.70
2019-05-18T14:47:37.963Z,1.60
2019-05-18T14:50:18.315Z,1.93
2019-05-18T14:52:59.119Z,2.30
2019-05-18T14:55:39.931Z,2.20
2019-05-18T14:58:20.813Z,2.00
2019-05-18T15:01:01.719Z,2.90
2019-05-18T15:03:42.450Z,2.57
2019-05-18T15:06:23.112Z,2.33
2019-05-18T15:09:04.614Z,2.50
2019-05-18T15:11:45.795Z,2.10
2019-05-18T15:14:26.641Z,2.60
2019-05-18T15:17:07.461Z,2.30
2019-05-18T15:19:48.208Z,2.20
2019-05-18T15:22:28.859Z,1.90
2019-05-18T15:25:09.284Z,2.60
2019-05-18T15:27:50.016Z,2.40
2019-05-18T15:30:30.678Z,1.90
2019-05-18T15:33:11.361Z,2.37
2019-05-18T15:35:52.088Z,2.23
2019-05-18T15:38:32.904Z,1.80
2019-05-18T15:41:13.936Z,3.43
2019-05-18T15:43:55.261Z,2.50
2019-05-18T15:46:36.161Z,1.90
2019-05-18T15:49:17.026Z,2.20
2019-05-18T15:51:58.237Z,1.73
2019-05-18T15:54:39.055Z,1.90
2019-05-18T15:57:19.796Z,2.20
2019-05-18T16:00:00.502Z,1.93
2019-05-18T16:02:41.210Z,2.87
2019-05-18T16:05:22.009Z,2.23
2019-05-18T16:08:02.733Z,2.03
2019-05-18T16:10:43.477Z,2.00
2019-05-18T16:13:24.282Z,2.57
2019-05-18T16:16:05.029Z,2.00
2019-05-18T16:18:46.220Z,2.03
2019-05-18T16:21:26.969Z,1.77
2019-05-18T16:24:07.842Z,2.03
2019-05-18T16:26:48.700Z,1.77
2019-05-18T16:29:29.280Z,2.40
2019-05-18T16:32:09.991Z,2.33
2019-05-18T16:34:50.696Z,2.47
2019-05-18T16:37:31.590Z,1.97
2019-05-18T16:40:11.920Z,1.70
2019-05-18T16:42:52.546Z,2.53
2019-05-18T16:45:33.261Z,1.97
2019-05-18T16:48:14.362Z,2.10
2019-05-18T16:50:55.346Z,1.90
2019-05-18T16:53:36.293Z,2.13
2019-05-18T16:56:17.403Z,2.07
2019-05-18T16:58:58.266Z,2.10
2019-05-18T17:01:39.081Z,2.40
2019-05-18T17:04:19.743Z,1.70
2019-05-18T17:07:00.596Z,1.50
2019-05-18T17:09:41.133Z,1.93
2019-05-18T17:12:21.734Z,1.20
2019-05-18T17:15:02.587Z,1.50
2019-05-18T17:17:43.169Z,1.40
2019-05-18T17:20:23.941Z,1.93
2019-05-18T17:23:04.990Z,2.83
2019-05-18T17:25:45.464Z,2.30
2019-05-18T17:28:26.313Z,2.47
2019-05-18T17:31:07.216Z,1.67
2019-05-18T17:33:48.053Z,2.30
2019-05-18T17:36:28.909Z,2.10
2019-05-18T17:39:09.780Z,2.20
2019-05-18T17:41:50.488Z,1.73
2019-05-18T17:44:31.477Z,1.73
2019-05-18T17:47:12.508Z,1.67
2019-05-18T17:49:53.125Z,1.83
2019-05-18T17:52:33.581Z,1.40
2019-05-18T17:55:16.373Z,1.70
2019-05-18T17:57:56.916Z,1.50
2019-05-18T18:00:37.542Z,1.70
2019-05-18T18:03:18.127Z,1.90
2019-05-18T18:05:58.922Z,1.73
2019-05-18T18:08:39.920Z,1.53
2019-05-18T18:11:20.485Z,1.60
2019-05-18T18:14:01.253Z,1.87
2019-05-18T18:16:41.967Z,1.13
2019-05-18T18:19:22.835Z,1.20
2019-05-18T18:22:04.054Z,1.60
2019-05-18T18:24:44.737Z,2.03
2019-05-18T18:27:27.828Z,2.10
2019-05-18T18:30:08.183Z,1.10
2019-05-18T18:32:49.088Z,1.70
2019-05-18T18:35:29.633Z,1.20
2019-05-18T18:38:10.373Z,1.60
2019-05-18T18:40:51.162Z,1.50
2019-05-18T18:43:32.026Z,1.13
2019-05-18T18:46:12.588Z,0.80
2019-05-18T18:48:53.267Z,1.30
2019-05-18T18:51:34.051Z,1.20
2019-05-18T18:54:14.984Z,1.00
2019-05-18T18:56:55.621Z,0.90
2019-05-18T18:59:36.601Z,1.13
2019-05-18T19:02:17.300Z,1.57
2019-05-18T19:04:58.220Z,1.20
2019-05-18T19:07:38.819Z,1.20
2019-05-18T19:10:19.699Z,0.90
2019-05-18T19:13:00.454Z,1.00
2019-05-18T19:15:41.055Z,0.70
2019-05-18T19:18:21.773Z,1.30
2019-05-18T19:21:02.400Z,0.57
2019-05-18T19:23:43.038Z,0.70
2019-05-18T19:26:23.770Z,0.80
2019-05-18T19:29:04.731Z,1.20
2019-05-18T19:31:45.415Z,0.73
2019-05-18T19:34:26.123Z,0.90
2019-05-18T19:37:06.676Z,0.73
2019-05-18T19:39:47.508Z,1.00
2019-05-18T19:42:28.613Z,0.77
2019-05-18T19:45:09.836Z,0.93
2019-05-18T19:47:50.488Z,0.77
2019-05-18T19:50:31.182Z,0.73
2019-05-18T19:53:11.832Z,1.00
2019-05-18T19:55:52.792Z,1.00
2019-05-18T19:58:33.687Z,1.00
2019-05-18T20:01:14.474Z,0.80
2019-05-18T20:03:55.138Z,1.13
2019-05-18T20:06:36.186Z,0.83
2019-05-18T20:09:16.994Z,0.90
2019-05-18T20:11:57.676Z,1.10
2019-05-18T20:14:38.449Z,0.70
2019-05-18T20:17:19.245Z,1.03
2019-05-18T20:19:59.988Z,0.77
2019-05-18T20:22:40.792Z,1.00
2019-05-18T20:25:21.683Z,0.70
2019-05-18T20:28:02.632Z,0.80
2019-05-18T20:30:43.486Z,0.93
2019-05-18T20:33:24.534Z,1.20
2019-05-18T20:36:05.306Z,1.07
2019-05-18T20:38:45.981Z,0.73
2019-05-18T20:41:27.184Z,0.57
2019-05-18T20:44:07.997Z,0.73
2019-05-18T20:46:48.632Z,0.67
2019-05-18T20:49:29.506Z,0.73
2019-05-18T20:52:10.058Z,0.70
2019-05-18T20:54:50.638Z,0.50
2019-05-18T20:57:31.048Z,0.93
2019-05-18T21:00:11.765Z,0.63
2019-05-18T21:02:52.236Z,0.50
2019-05-18T21:05:33.411Z,1.40
2019-05-18T21:08:14.093Z,0.40
2019-05-18T21:10:55.321Z,0.70
2019-05-18T21:13:36.173Z,0.80
2019-05-18T21:16:16.817Z,0.93
2019-05-18T21:18:57.400Z,0.60
2019-05-18T21:21:38.150Z,0.87
2019-05-18T21:24:19.143Z,0.70
2019-05-18T21:27:00.454Z,0.90
2019-05-18T21:29:41.422Z,0.90
2019-05-18T21:32:22.281Z,0.63
2019-05-18T21:35:03.179Z,0.63
2019-05-18T21:37:43.701Z,0.93
2019-05-18T21:40:26.242Z,1.53
2019-05-18T21:43:07.172Z,0.53
2019-05-18T21:45:48.190Z,0.77
2019-05-18T21:48:28.697Z,1.17
2019-05-18T21:51:09.976Z,1.07
2019-05-18T21:53:50.931Z,0.60
2019-05-18T21:56:31.756Z,0.80
2019-05-18T21:59:12.999Z,0.70
2019-05-18T22:01:53.957Z,0.90
2019-05-18T22:04:34.478Z,0.53
2019-05-18T22:07:15.424Z,0.67
2019-05-18T22:09:56.692Z,0.90
2019-05-18T22:12:37.697Z,1.00
2019-05-18T22:15:18.316Z,0.73
2019-05-18T22:18:05.288Z,0.63
2019-05-18T22:20:46.127Z,1.10
2019-05-18T22:23:26.864Z,0.77
2019-05-18T22:26:07.378Z,1.70
2019-05-18T22:28:48.079Z,0.70
2019-05-18T22:31:28.737Z,1.30
2019-05-18T22:34:09.823Z,1.20
2019-05-18T22:36:50.777Z,0.70
2019-05-18T22:39:31.352Z,0.77
2019-05-18T22:42:11.919Z,1.30
2019-05-18T22:44:53.118Z,0.93
2019-05-18T22:47:33.760Z,1.23
2019-05-18T22:50:14.620Z,0.70
2019-05-18T22:52:55.474Z,1.80
2019-05-18T22:55:36.201Z,0.97
2019-05-18T22:58:16.873Z,0.93
2019-05-18T23:00:57.685Z,1.13
2019-05-18T23:03:38.226Z,1.20
2019-05-18T23:06:18.812Z,1.20
2019-05-18T23:08:59.565Z,1.10
2019-05-18T23:11:40.245Z,0.93
2019-05-18T23:14:20.841Z,0.80
2019-05-18T23:17:01.580Z,0.70
2019-05-18T23:19:42.364Z,0.70
2019-05-18T23:22:23.253Z,0.70
2019-05-18T23:25:03.892Z,0.50
2019-05-18T23:27:44.685Z,0.83
2019-05-18T23:30:25.309Z,0.50
2019-05-18T23:33:05.841Z,0.50
2019-05-18T23:35:46.513Z,0.37
2019-05-18T23:38:27.237Z,0.90
2019-05-18T23:41:07.854Z,0.80
2019-05-18T23:43:48.435Z,0.93
2019-05-18T23:46:28.934Z,0.80
2019-05-18T23:49:11.168Z,1.03
2019-05-18T23:51:52.420Z,0.63
2019-05-18T23:54:33.296Z,0.50
2019-05-18T23:57:14.182Z,0.43
2019-05-18T23:59:55.071Z,0.70
